sensor_id;sensor_type;location;lat;lon;timestamp;temperature;humidity
7654;DHT22;3869;48.406;10.774;2023-07-31T00:02:15;14.90;99.90
7654;DHT22;3869;48.406;10.774;2023-07-31T00:04:43;14.90;99.90
7654;DHT22;3869;48.406;10.774;2023-07-31T00:07:11;14.90;99.90
7654;DHT22;3869;48.406;10.774;2023-07-31T00:09:39;14.90;99.90
7654;DHT22;3869;48.406;10.774;2023-07-31T00:12:07;14.70;99.90
7654;DHT22;3869;48.406;10.774;2023-07-31T00:14:36;14.90;99.90
7654;DHT22;3869;48.406;10.774;2023-07-31T00:17:04;14.90;99.90
7654;DHT22;3869;48.406;10.774;2023-07-31T00:19:34;14.80;99.90
7654;DHT22;3869;48.406;10.774;2023-07-31T00:22:02;14.70;99.90
7654;DHT22;3869;48.406;10.774;2023-07-31T00:24:30;14.60;99.90
7654;DHT22;3869;48.406;10.774;2023-07-31T00:26:58;14.70;99.90
7654;DHT22;3869;48.406;10.774;2023-07-31T00:29:26;14.70;99.90
7654;DHT22;3869;48.406;10.774;2023-07-31T00:31:54;14.70;99.90
7654;DHT22;3869;48.406;10.774;2023-07-31T00:34:22;14.70;99.90
7654;DHT22;3869;48.406;10.774;2023-07-31T00:36:51;14.70;99.90
7654;DHT22;3869;48.406;10.774;2023-07-31T00:39:19;14.70;99.90
7654;DHT22;3869;48.406;10.774;2023-07-31T00:41:47;14.60;99.90
7654;DHT22;3869;48.406;10.774;2023-07-31T00:44:15;14.50;99.90
7654;DHT22;3869;48.406;10.774;2023-07-31T00:46:43;14.50;99.90
7654;DHT22;3869;48.406;10.774;2023-07-31T00:49:12;14.60;99.90
7654;DHT22;3869;48.406;10.774;2023-07-31T00:51:40;14.50;99.90
7654;DHT22;3869;48.406;10.774;2023-07-31T00:54:09;14.40;99.90
7654;DHT22;3869;48.406;10.774;2023-07-31T00:56:40;14.50;99.90
7654;DHT22;3869;48.406;10.774;2023-07-31T00:59:09;14.50;99.90
7654;DHT22;3869;48.406;10.774;2023-07-31T01:01:37;14.50;99.90
7654;DHT22;3869;48.406;10.774;2023-07-31T01:04:06;14.50;99.90
7654;DHT22;3869;48.406;10.774;2023-07-31T01:06:37;14.40;99.90
7654;DHT22;3869;48.406;10.774;2023-07-31T01:09:15;14.30;99.90
7654;DHT22;3869;48.406;10.774;2023-07-31T01:11:52;14.30;99.90
7654;DHT22;3869;48.406;10.774;2023-07-31T01:14:20;14.30;99.90
7654;DHT22;3869;48.406;10.774;2023-07-31T01:16:48;14.30;99.90
7654;DHT22;3869;48.406;10.774;2023-07-31T01:19:19;14.40;99.90
7654;DHT22;3869;48.406;10.774;2023-07-31T01:22:12;14.40;99.90
7654;DHT22;3869;48.406;10.774;2023-07-31T01:24:55;14.40;99.90
7654;DHT22;3869;48.406;10.774;2023-07-31T01:27:29;14.40;99.90
7654;DHT22;3869;48.406;10.774;2023-07-31T01:30:03;14.40;99.90
7654;DHT22;3869;48.406;10.774;2023-07-31T01:32:39;14.30;99.90
7654;DHT22;3869;48.406;10.774;2023-07-31T01:35:08;14.30;99.90
7654;DHT22;3869;48.406;10.774;2023-07-31T01:37:37;14.20;99.90
7654;DHT22;3869;48.406;10.774;2023-07-31T01:40:06;14.20;99.90
7654;DHT22;3869;48.406;10.774;2023-07-31T01:42:35;14.20;99.90
7654;DHT22;3869;48.406;10.774;2023-07-31T01:45:04;14.20;99.90
7654;DHT22;3869;48.406;10.774;2023-07-31T01:47:33;14.20;99.90
7654;DHT22;3869;48.406;10.774;2023-07-31T01:50:01;14.10;99.90
7654;DHT22;3869;48.406;10.774;2023-07-31T01:52:29;14.10;99.90
7654;DHT22;3869;48.406;10.774;2023-07-31T01:54:57;14.10;99.90
7654;DHT22;3869;48.406;10.774;2023-07-31T01:57:24;14.10;99.90
7654;DHT22;3869;48.406;10.774;2023-07-31T01:59:54;14.10;99.90
7654;DHT22;3869;48.406;10.774;2023-07-31T02:02:22;14.10;99.90
7654;DHT22;3869;48.406;10.774;2023-07-31T02:04:50;14.10;99.90
7654;DHT22;3869;48.406;10.774;2023-07-31T02:07:18;14.10;99.90
7654;DHT22;3869;48.406;10.774;2023-07-31T02:09:46;14.10;99.90
7654;DHT22;3869;48.406;10.774;2023-07-31T02:12:14;14.10;99.90
7654;DHT22;3869;48.406;10.774;2023-07-31T02:14:42;14.10;99.90
7654;DHT22;3869;48.406;10.774;2023-07-31T02:17:12;14.10;99.90
7654;DHT22;3869;48.406;10.774;2023-07-31T02:19:39;14.00;99.90
7654;DHT22;3869;48.406;10.774;2023-07-31T02:22:07;14.00;99.90
7654;DHT22;3869;48.406;10.774;2023-07-31T02:24:35;14.00;99.90
7654;DHT22;3869;48.406;10.774;2023-07-31T02:27:04;14.00;99.90
7654;DHT22;3869;48.406;10.774;2023-07-31T02:29:32;14.00;99.90
7654;DHT22;3869;48.406;10.774;2023-07-31T02:32:00;14.00;99.90
7654;DHT22;3869;48.406;10.774;2023-07-31T02:34:30;13.90;99.90
7654;DHT22;3869;48.406;10.774;2023-07-31T02:36:57;13.90;99.90
7654;DHT22;3869;48.406;10.774;2023-07-31T02:39:25;13.90;99.90
7654;DHT22;3869;48.406;10.774;2023-07-31T02:41:53;13.90;99.90
7654;DHT22;3869;48.406;10.774;2023-07-31T02:44:21;13.80;99.90
7654;DHT22;3869;48.406;10.774;2023-07-31T02:46:49;13.80;99.90
7654;DHT22;3869;48.406;10.774;2023-07-31T02:49:17;13.80;99.90
7654;DHT22;3869;48.406;10.774;2023-07-31T02:51:47;13.80;99.90
7654;DHT22;3869;48.406;10.774;2023-07-31T02:54:15;13.80;99.90
7654;DHT22;3869;48.406;10.774;2023-07-31T02:56:42;13.80;99.90
7654;DHT22;3869;48.406;10.774;2023-07-31T02:59:10;13.70;99.90
7654;DHT22;3869;48.406;10.774;2023-07-31T03:01:38;13.80;99.90
7654;DHT22;3869;48.406;10.774;2023-07-31T03:04:07;13.80;99.90
7654;DHT22;3869;48.406;10.774;2023-07-31T03:06:35;13.70;99.90
7654;DHT22;3869;48.406;10.774;2023-07-31T03:09:05;13.60;99.90
7654;DHT22;3869;48.406;10.774;2023-07-31T03:11:33;13.60;99.90
7654;DHT22;3869;48.406;10.774;2023-07-31T03:14:01;13.60;99.90
7654;DHT22;3869;48.406;10.774;2023-07-31T03:16:29;13.60;99.90
7654;DHT22;3869;48.406;10.774;2023-07-31T03:18:57;13.60;99.90
7654;DHT22;3869;48.406;10.774;2023-07-31T03:21:25;13.70;99.90
7654;DHT22;3869;48.406;10.774;2023-07-31T03:23:52;13.70;99.90
7654;DHT22;3869;48.406;10.774;2023-07-31T03:26:22;13.70;99.90
7654;DHT22;3869;48.406;10.774;2023-07-31T03:28:50;13.70;99.90
7654;DHT22;3869;48.406;10.774;2023-07-31T03:31:18;13.60;99.90
7654;DHT22;3869;48.406;10.774;2023-07-31T03:33:46;13.50;99.90
7654;DHT22;3869;48.406;10.774;2023-07-31T03:36:14;13.50;99.90
7654;DHT22;3869;48.406;10.774;2023-07-31T03:38:42;13.50;99.90
7654;DHT22;3869;48.406;10.774;2023-07-31T03:41:10;13.50;99.90
7654;DHT22;3869;48.406;10.774;2023-07-31T03:43:39;13.50;99.90
7654;DHT22;3869;48.406;10.774;2023-07-31T03:46:07;13.50;99.90
7654;DHT22;3869;48.406;10.774;2023-07-31T03:48:35;13.60;99.90
7654;DHT22;3869;48.406;10.774;2023-07-31T03:51:03;13.60;99.90
7654;DHT22;3869;48.406;10.774;2023-07-31T03:53:31;13.60;99.90
7654;DHT22;3869;48.406;10.774;2023-07-31T03:55:59;13.60;99.90
7654;DHT22;3869;48.406;10.774;2023-07-31T03:58:27;13.70;99.90
7654;DHT22;3869;48.406;10.774;2023-07-31T04:00:56;13.70;99.90
7654;DHT22;3869;48.406;10.774;2023-07-31T04:03:24;13.70;99.90
7654;DHT22;3869;48.406;10.774;2023-07-31T04:05:54;13.60;99.90
7654;DHT22;3869;48.406;10.774;2023-07-31T04:08:22;13.60;99.90
7654;DHT22;3869;48.406;10.774;2023-07-31T04:10:50;13.60;99.90
7654;DHT22;3869;48.406;10.774;2023-07-31T04:13:18;13.60;99.90
7654;DHT22;3869;48.406;10.774;2023-07-31T04:15:48;13.50;99.90
7654;DHT22;3869;48.406;10.774;2023-07-31T04:18:18;13.60;99.90
7654;DHT22;3869;48.406;10.774;2023-07-31T04:20:46;13.60;99.90
7654;DHT22;3869;48.406;10.774;2023-07-31T04:23:14;13.60;99.90
7654;DHT22;3869;48.406;10.774;2023-07-31T04:25:42;13.70;99.90
7654;DHT22;3869;48.406;10.774;2023-07-31T04:28:10;13.70;99.90
7654;DHT22;3869;48.406;10.774;2023-07-31T04:30:39;13.80;99.90
7654;DHT22;3869;48.406;10.774;2023-07-31T04:33:07;13.80;99.90
7654;DHT22;3869;48.406;10.774;2023-07-31T04:35:36;13.80;99.90
7654;DHT22;3869;48.406;10.774;2023-07-31T04:38:04;13.80;99.90
7654;DHT22;3869;48.406;10.774;2023-07-31T04:40:32;13.70;99.90
7654;DHT22;3869;48.406;10.774;2023-07-31T04:43:00;13.70;99.90
7654;DHT22;3869;48.406;10.774;2023-07-31T04:45:28;13.70;99.90
7654;DHT22;3869;48.406;10.774;2023-07-31T04:47:56;13.90;99.90
7654;DHT22;3869;48.406;10.774;2023-07-31T04:50:24;13.90;99.90
7654;DHT22;3869;48.406;10.774;2023-07-31T04:52:53;14.00;99.90
7654;DHT22;3869;48.406;10.774;2023-07-31T04:55:21;14.10;99.90
7654;DHT22;3869;48.406;10.774;2023-07-31T04:57:50;14.20;99.90
7654;DHT22;3869;48.406;10.774;2023-07-31T05:00:18;14.20;99.90
7654;DHT22;3869;48.406;10.774;2023-07-31T05:02:46;14.30;99.90
7654;DHT22;3869;48.406;10.774;2023-07-31T05:05:14;14.30;99.90
7654;DHT22;3869;48.406;10.774;2023-07-31T05:07:42;14.30;99.90
7654;DHT22;3869;48.406;10.774;2023-07-31T05:10:12;14.30;99.90
7654;DHT22;3869;48.406;10.774;2023-07-31T05:12:40;14.30;99.90
7654;DHT22;3869;48.406;10.774;2023-07-31T05:15:08;14.30;99.90
7654;DHT22;3869;48.406;10.774;2023-07-31T05:17:37;14.30;99.90
7654;DHT22;3869;48.406;10.774;2023-07-31T05:20:06;14.40;99.90
7654;DHT22;3869;48.406;10.774;2023-07-31T05:22:34;14.50;99.90
7654;DHT22;3869;48.406;10.774;2023-07-31T05:25:02;14.50;99.90
7654;DHT22;3869;48.406;10.774;2023-07-31T05:27:32;14.60;99.90
7654;DHT22;3869;48.406;10.774;2023-07-31T05:30:00;14.60;99.90
7654;DHT22;3869;48.406;10.774;2023-07-31T05:32:28;14.70;99.90
7654;DHT22;3869;48.406;10.774;2023-07-31T05:34:57;14.80;99.90
7654;DHT22;3869;48.406;10.774;2023-07-31T05:37:25;14.90;99.90
7654;DHT22;3869;48.406;10.774;2023-07-31T05:39:53;14.90;99.90
7654;DHT22;3869;48.406;10.774;2023-07-31T05:42:21;15.00;99.90
7654;DHT22;3869;48.406;10.774;2023-07-31T05:44:50;15.10;99.90
7654;DHT22;3869;48.406;10.774;2023-07-31T05:47:18;15.10;99.90
7654;DHT22;3869;48.406;10.774;2023-07-31T05:49:47;15.20;99.90
7654;DHT22;3869;48.406;10.774;2023-07-31T05:52:16;15.10;99.90
7654;DHT22;3869;48.406;10.774;2023-07-31T05:54:44;15.40;99.90
7654;DHT22;3869;48.406;10.774;2023-07-31T05:57:12;15.40;99.90
7654;DHT22;3869;48.406;10.774;2023-07-31T05:59:40;15.50;99.90
7654;DHT22;3869;48.406;10.774;2023-07-31T06:02:09;15.60;99.90
7654;DHT22;3869;48.406;10.774;2023-07-31T06:04:37;15.60;99.90
7654;DHT22;3869;48.406;10.774;2023-07-31T06:07:06;15.70;99.90
7654;DHT22;3869;48.406;10.774;2023-07-31T06:09:34;15.70;99.90
7654;DHT22;3869;48.406;10.774;2023-07-31T06:12:02;15.80;99.90
7654;DHT22;3869;48.406;10.774;2023-07-31T06:14:30;15.80;99.90
7654;DHT22;3869;48.406;10.774;2023-07-31T06:16:58;15.90;99.90
7654;DHT22;3869;48.406;10.774;2023-07-31T06:19:28;15.90;99.90
7654;DHT22;3869;48.406;10.774;2023-07-31T06:21:56;16.00;99.90
7654;DHT22;3869;48.406;10.774;2023-07-31T06:24:23;16.00;99.90
7654;DHT22;3869;48.406;10.774;2023-07-31T06:26:51;16.00;99.90
7654;DHT22;3869;48.406;10.774;2023-07-31T06:29:21;16.00;99.90
7654;DHT22;3869;48.406;10.774;2023-07-31T06:31:49;16.10;99.90
7654;DHT22;3869;48.406;10.774;2023-07-31T06:34:17;16.20;99.90
7654;DHT22;3869;48.406;10.774;2023-07-31T06:36:46;16.30;99.90
7654;DHT22;3869;48.406;10.774;2023-07-31T06:39:14;16.30;99.90
7654;DHT22;3869;48.406;10.774;2023-07-31T06:41:43;16.40;99.90
7654;DHT22;3869;48.406;10.774;2023-07-31T06:44:11;16.40;99.90
7654;DHT22;3869;48.406;10.774;2023-07-31T06:46:39;16.50;99.90
7654;DHT22;3869;48.406;10.774;2023-07-31T06:49:08;16.50;99.90
7654;DHT22;3869;48.406;10.774;2023-07-31T06:51:36;16.60;99.90
7654;DHT22;3869;48.406;10.774;2023-07-31T06:54:07;16.60;99.90
7654;DHT22;3869;48.406;10.774;2023-07-31T06:56:35;16.70;99.90
7654;DHT22;3869;48.406;10.774;2023-07-31T06:59:07;16.80;99.90
7654;DHT22;3869;48.406;10.774;2023-07-31T07:01:35;16.90;99.90
7654;DHT22;3869;48.406;10.774;2023-07-31T07:04:03;17.00;99.90
7654;DHT22;3869;48.406;10.774;2023-07-31T07:06:31;17.00;99.90
7654;DHT22;3869;48.406;10.774;2023-07-31T07:08:59;17.10;99.90
7654;DHT22;3869;48.406;10.774;2023-07-31T07:11:29;17.10;99.90
7654;DHT22;3869;48.406;10.774;2023-07-31T07:13:57;17.20;99.90
7654;DHT22;3869;48.406;10.774;2023-07-31T07:16:25;17.20;99.90
7654;DHT22;3869;48.406;10.774;2023-07-31T07:18:52;17.20;99.90
7654;DHT22;3869;48.406;10.774;2023-07-31T07:21:31;17.30;99.90
7654;DHT22;3869;48.406;10.774;2023-07-31T07:23:59;17.40;99.90
7654;DHT22;3869;48.406;10.774;2023-07-31T07:26:26;17.50;99.90
7654;DHT22;3869;48.406;10.774;2023-07-31T07:28:56;17.50;99.90
7654;DHT22;3869;48.406;10.774;2023-07-31T07:31:27;17.60;99.90
7654;DHT22;3869;48.406;10.774;2023-07-31T07:33:55;17.60;99.90
7654;DHT22;3869;48.406;10.774;2023-07-31T07:36:23;17.70;99.90
7654;DHT22;3869;48.406;10.774;2023-07-31T07:38:51;17.70;99.90
7654;DHT22;3869;48.406;10.774;2023-07-31T07:41:19;17.70;99.90
7654;DHT22;3869;48.406;10.774;2023-07-31T07:43:47;17.70;99.90
7654;DHT22;3869;48.406;10.774;2023-07-31T07:46:17;17.80;99.90
7654;DHT22;3869;48.406;10.774;2023-07-31T07:48:45;17.80;99.90
7654;DHT22;3869;48.406;10.774;2023-07-31T07:51:13;17.80;99.90
7654;DHT22;3869;48.406;10.774;2023-07-31T07:53:41;17.90;99.90
7654;DHT22;3869;48.406;10.774;2023-07-31T07:56:09;17.90;99.90
7654;DHT22;3869;48.406;10.774;2023-07-31T07:58:37;17.90;99.90
7654;DHT22;3869;48.406;10.774;2023-07-31T08:01:05;18.00;99.90
7654;DHT22;3869;48.406;10.774;2023-07-31T08:03:34;18.00;99.90
7654;DHT22;3869;48.406;10.774;2023-07-31T08:06:02;18.00;99.90
7654;DHT22;3869;48.406;10.774;2023-07-31T08:08:30;18.00;99.90
7654;DHT22;3869;48.406;10.774;2023-07-31T08:10:58;18.10;99.90
7654;DHT22;3869;48.406;10.774;2023-07-31T08:13:26;18.10;99.90
7654;DHT22;3869;48.406;10.774;2023-07-31T08:15:54;18.10;99.90
7654;DHT22;3869;48.406;10.774;2023-07-31T08:18:22;18.10;99.90
7654;DHT22;3869;48.406;10.774;2023-07-31T08:20:52;18.20;99.90
7654;DHT22;3869;48.406;10.774;2023-07-31T08:23:20;18.20;99.90
7654;DHT22;3869;48.406;10.774;2023-07-31T08:25:48;18.10;99.90
7654;DHT22;3869;48.406;10.774;2023-07-31T08:28:17;18.10;99.90
7654;DHT22;3869;48.406;10.774;2023-07-31T08:30:45;18.20;99.90
7654;DHT22;3869;48.406;10.774;2023-07-31T08:33:13;18.20;99.90
7654;DHT22;3869;48.406;10.774;2023-07-31T08:35:41;18.20;99.90
7654;DHT22;3869;48.406;10.774;2023-07-31T08:38:12;18.30;99.90
7654;DHT22;3869;48.406;10.774;2023-07-31T08:40:40;18.30;99.90
7654;DHT22;3869;48.406;10.774;2023-07-31T08:43:09;18.30;99.90
7654;DHT22;3869;48.406;10.774;2023-07-31T08:45:37;18.40;99.90
7654;DHT22;3869;48.406;10.774;2023-07-31T08:48:06;18.50;99.90
7654;DHT22;3869;48.406;10.774;2023-07-31T08:50:34;18.40;99.90
7654;DHT22;3869;48.406;10.774;2023-07-31T08:53:03;18.50;99.90
7654;DHT22;3869;48.406;10.774;2023-07-31T08:55:32;18.50;99.90
7654;DHT22;3869;48.406;10.774;2023-07-31T08:58:03;18.50;99.90
7654;DHT22;3869;48.406;10.774;2023-07-31T09:00:32;18.50;99.90
7654;DHT22;3869;48.406;10.774;2023-07-31T09:03:03;18.50;99.90
7654;DHT22;3869;48.406;10.774;2023-07-31T09:05:31;18.50;99.90
7654;DHT22;3869;48.406;10.774;2023-07-31T09:08:02;18.50;99.90
7654;DHT22;3869;48.406;10.774;2023-07-31T09:10:33;18.50;99.90
7654;DHT22;3869;48.406;10.774;2023-07-31T09:13:02;18.50;99.90
7654;DHT22;3869;48.406;10.774;2023-07-31T09:15:30;18.60;99.90
7654;DHT22;3869;48.406;10.774;2023-07-31T09:18:05;18.60;99.90
7654;DHT22;3869;48.406;10.774;2023-07-31T09:20:34;18.70;99.90
7654;DHT22;3869;48.406;10.774;2023-07-31T09:23:06;18.70;99.90
7654;DHT22;3869;48.406;10.774;2023-07-31T09:25:37;18.70;99.90
7654;DHT22;3869;48.406;10.774;2023-07-31T09:28:07;18.70;99.90
7654;DHT22;3869;48.406;10.774;2023-07-31T09:30:47;18.80;99.90
7654;DHT22;3869;48.406;10.774;2023-07-31T09:33:17;18.90;99.90
7654;DHT22;3869;48.406;10.774;2023-07-31T09:35:46;19.00;99.90
7654;DHT22;3869;48.406;10.774;2023-07-31T09:38:15;19.00;99.90
7654;DHT22;3869;48.406;10.774;2023-07-31T09:40:46;19.00;99.90
7654;DHT22;3869;48.406;10.774;2023-07-31T09:43:17;19.10;99.90
7654;DHT22;3869;48.406;10.774;2023-07-31T09:45:46;19.30;99.90
7654;DHT22;3869;48.406;10.774;2023-07-31T09:48:15;19.30;99.90
7654;DHT22;3869;48.406;10.774;2023-07-31T09:50:45;19.40;99.90
7654;DHT22;3869;48.406;10.774;2023-07-31T09:53:14;19.40;99.90
7654;DHT22;3869;48.406;10.774;2023-07-31T09:55:45;19.50;99.90
7654;DHT22;3869;48.406;10.774;2023-07-31T09:58:13;19.50;99.90
7654;DHT22;3869;48.406;10.774;2023-07-31T10:00:41;19.60;99.90
7654;DHT22;3869;48.406;10.774;2023-07-31T10:03:10;19.70;99.90
7654;DHT22;3869;48.406;10.774;2023-07-31T10:05:42;19.80;99.90
7654;DHT22;3869;48.406;10.774;2023-07-31T10:08:13;19.80;99.90
7654;DHT22;3869;48.406;10.774;2023-07-31T10:10:44;19.80;99.90
7654;DHT22;3869;48.406;10.774;2023-07-31T10:13:16;19.90;99.90
7654;DHT22;3869;48.406;10.774;2023-07-31T10:15:45;19.90;99.90
7654;DHT22;3869;48.406;10.774;2023-07-31T10:18:14;20.00;99.90
7654;DHT22;3869;48.406;10.774;2023-07-31T10:20:42;20.00;99.90
7654;DHT22;3869;48.406;10.774;2023-07-31T10:23:11;20.10;99.90
7654;DHT22;3869;48.406;10.774;2023-07-31T10:25:40;20.10;99.90
7654;DHT22;3869;48.406;10.774;2023-07-31T10:28:10;20.20;99.90
7654;DHT22;3869;48.406;10.774;2023-07-31T10:30:39;20.30;99.90
7654;DHT22;3869;48.406;10.774;2023-07-31T10:33:07;20.40;99.90
7654;DHT22;3869;48.406;10.774;2023-07-31T10:35:35;20.40;99.90
7654;DHT22;3869;48.406;10.774;2023-07-31T10:38:09;20.50;99.90
7654;DHT22;3869;48.406;10.774;2023-07-31T10:40:38;20.60;99.90
7654;DHT22;3869;48.406;10.774;2023-07-31T10:43:07;20.60;99.90
7654;DHT22;3869;48.406;10.774;2023-07-31T10:45:42;20.60;99.90
7654;DHT22;3869;48.406;10.774;2023-07-31T10:48:13;20.70;99.90
7654;DHT22;3869;48.406;10.774;2023-07-31T10:50:47;20.70;99.90
7654;DHT22;3869;48.406;10.774;2023-07-31T10:53:23;20.90;99.90
7654;DHT22;3869;48.406;10.774;2023-07-31T10:55:51;21.10;99.90
7654;DHT22;3869;48.406;10.774;2023-07-31T10:58:20;21.20;99.90
7654;DHT22;3869;48.406;10.774;2023-07-31T11:00:51;21.30;99.90
7654;DHT22;3869;48.406;10.774;2023-07-31T11:03:25;21.30;99.90
7654;DHT22;3869;48.406;10.774;2023-07-31T11:06:00;21.30;99.90
7654;DHT22;3869;48.406;10.774;2023-07-31T11:08:31;21.30;99.90
7654;DHT22;3869;48.406;10.774;2023-07-31T11:11:07;21.40;99.90
7654;DHT22;3869;48.406;10.774;2023-07-31T11:13:40;21.50;99.90
7654;DHT22;3869;48.406;10.774;2023-07-31T11:16:11;21.50;99.90
7654;DHT22;3869;48.406;10.774;2023-07-31T11:18:40;21.60;99.90
7654;DHT22;3869;48.406;10.774;2023-07-31T11:21:11;21.80;99.90
7654;DHT22;3869;48.406;10.774;2023-07-31T11:23:40;21.80;99.90
7654;DHT22;3869;48.406;10.774;2023-07-31T11:26:08;21.90;99.90
7654;DHT22;3869;48.406;10.774;2023-07-31T11:28:36;21.90;99.90
7654;DHT22;3869;48.406;10.774;2023-07-31T11:31:05;21.90;99.90
7654;DHT22;3869;48.406;10.774;2023-07-31T11:33:37;22.00;99.90
7654;DHT22;3869;48.406;10.774;2023-07-31T11:36:05;21.90;99.90
7654;DHT22;3869;48.406;10.774;2023-07-31T11:38:34;22.00;99.90
7654;DHT22;3869;48.406;10.774;2023-07-31T11:41:03;22.20;99.90
7654;DHT22;3869;48.406;10.774;2023-07-31T11:43:32;22.40;99.90
7654;DHT22;3869;48.406;10.774;2023-07-31T11:46:01;22.50;99.90
7654;DHT22;3869;48.406;10.774;2023-07-31T11:48:31;22.60;99.90
7654;DHT22;3869;48.406;10.774;2023-07-31T11:51:04;22.60;99.90
7654;DHT22;3869;48.406;10.774;2023-07-31T11:53:36;22.60;99.90
7654;DHT22;3869;48.406;10.774;2023-07-31T11:56:06;22.70;99.90
7654;DHT22;3869;48.406;10.774;2023-07-31T11:58:36;22.90;99.90
7654;DHT22;3869;48.406;10.774;2023-07-31T12:01:05;22.90;99.90
7654;DHT22;3869;48.406;10.774;2023-07-31T12:03:34;22.90;99.90
7654;DHT22;3869;48.406;10.774;2023-07-31T12:06:03;23.00;99.90
7654;DHT22;3869;48.406;10.774;2023-07-31T12:08:31;23.10;99.90
7654;DHT22;3869;48.406;10.774;2023-07-31T12:11:03;23.30;99.90
7654;DHT22;3869;48.406;10.774;2023-07-31T12:13:32;23.30;99.90
7654;DHT22;3869;48.406;10.774;2023-07-31T12:16:03;23.30;99.90
7654;DHT22;3869;48.406;10.774;2023-07-31T12:18:34;23.40;99.90
7654;DHT22;3869;48.406;10.774;2023-07-31T12:21:05;23.40;99.90
7654;DHT22;3869;48.406;10.774;2023-07-31T12:23:36;23.40;99.90
7654;DHT22;3869;48.406;10.774;2023-07-31T12:26:06;23.30;99.90
7654;DHT22;3869;48.406;10.774;2023-07-31T12:28:35;23.30;99.90
7654;DHT22;3869;48.406;10.774;2023-07-31T12:31:05;23.30;99.90
7654;DHT22;3869;48.406;10.774;2023-07-31T12:33:35;23.40;99.90
7654;DHT22;3869;48.406;10.774;2023-07-31T12:36:10;23.50;99.90
7654;DHT22;3869;48.406;10.774;2023-07-31T12:38:38;23.50;99.90
7654;DHT22;3869;48.406;10.774;2023-07-31T12:41:06;23.60;99.90
7654;DHT22;3869;48.406;10.774;2023-07-31T12:43:35;23.50;99.90
7654;DHT22;3869;48.406;10.774;2023-07-31T12:46:03;23.40;99.90
7654;DHT22;3869;48.406;10.774;2023-07-31T12:48:32;23.30;99.90
7654;DHT22;3869;48.406;10.774;2023-07-31T12:51:00;23.40;99.90
7654;DHT22;3869;48.406;10.774;2023-07-31T12:53:30;23.30;99.90
7654;DHT22;3869;48.406;10.774;2023-07-31T12:55:58;23.20;99.90
7654;DHT22;3869;48.406;10.774;2023-07-31T12:58:26;23.20;99.90
7654;DHT22;3869;48.406;10.774;2023-07-31T13:00:54;23.00;99.90
7654;DHT22;3869;48.406;10.774;2023-07-31T13:03:23;23.00;99.90
7654;DHT22;3869;48.406;10.774;2023-07-31T13:05:52;22.80;99.90
7654;DHT22;3869;48.406;10.774;2023-07-31T13:08:20;22.70;99.90
7654;DHT22;3869;48.406;10.774;2023-07-31T13:10:49;22.80;99.90
7654;DHT22;3869;48.406;10.774;2023-07-31T13:13:17;23.00;99.90
7654;DHT22;3869;48.406;10.774;2023-07-31T13:15:45;23.10;99.90
7654;DHT22;3869;48.406;10.774;2023-07-31T13:18:13;23.30;99.90
7654;DHT22;3869;48.406;10.774;2023-07-31T13:20:41;23.50;99.90
7654;DHT22;3869;48.406;10.774;2023-07-31T13:23:09;23.70;99.90
7654;DHT22;3869;48.406;10.774;2023-07-31T13:25:37;23.80;99.90
7654;DHT22;3869;48.406;10.774;2023-07-31T13:28:07;24.00;99.90
7654;DHT22;3869;48.406;10.774;2023-07-31T13:30:35;24.10;99.90
7654;DHT22;3869;48.406;10.774;2023-07-31T13:33:03;24.10;99.40
7654;DHT22;3869;48.406;10.774;2023-07-31T13:35:31;24.20;99.90
7654;DHT22;3869;48.406;10.774;2023-07-31T13:37:59;24.30;99.90
7654;DHT22;3869;48.406;10.774;2023-07-31T13:40:27;24.30;99.90
7654;DHT22;3869;48.406;10.774;2023-07-31T13:42:55;24.10;99.90
7654;DHT22;3869;48.406;10.774;2023-07-31T13:45:24;24.00;99.90
7654;DHT22;3869;48.406;10.774;2023-07-31T13:47:52;23.90;99.70
7654;DHT22;3869;48.406;10.774;2023-07-31T13:50:20;23.80;99.90
7654;DHT22;3869;48.406;10.774;2023-07-31T13:52:49;23.80;99.90
7654;DHT22;3869;48.406;10.774;2023-07-31T13:55:17;23.60;99.90
7654;DHT22;3869;48.406;10.774;2023-07-31T13:57:45;23.50;99.90
7654;DHT22;3869;48.406;10.774;2023-07-31T14:00:14;23.30;99.90
7654;DHT22;3869;48.406;10.774;2023-07-31T14:02:43;23.20;99.90
7654;DHT22;3869;48.406;10.774;2023-07-31T14:05:11;23.10;99.90
7654;DHT22;3869;48.406;10.774;2023-07-31T14:07:39;23.00;99.90
7654;DHT22;3869;48.406;10.774;2023-07-31T14:10:08;22.90;99.90
7654;DHT22;3869;48.406;10.774;2023-07-31T14:12:37;22.80;99.90
7654;DHT22;3869;48.406;10.774;2023-07-31T14:15:09;22.70;99.90
7654;DHT22;3869;48.406;10.774;2023-07-31T14:17:38;22.60;99.90
7654;DHT22;3869;48.406;10.774;2023-07-31T14:20:09;22.60;99.90
7654;DHT22;3869;48.406;10.774;2023-07-31T14:22:38;22.50;99.90
7654;DHT22;3869;48.406;10.774;2023-07-31T14:25:06;22.50;99.90
7654;DHT22;3869;48.406;10.774;2023-07-31T14:27:37;22.40;99.90
7654;DHT22;3869;48.406;10.774;2023-07-31T14:30:06;22.30;99.90
7654;DHT22;3869;48.406;10.774;2023-07-31T14:32:34;22.30;99.90
7654;DHT22;3869;48.406;10.774;2023-07-31T14:35:04;22.20;99.90
7654;DHT22;3869;48.406;10.774;2023-07-31T14:37:38;22.20;99.90
7654;DHT22;3869;48.406;10.774;2023-07-31T14:40:08;22.20;99.90
7654;DHT22;3869;48.406;10.774;2023-07-31T14:42:37;22.20;99.90
7654;DHT22;3869;48.406;10.774;2023-07-31T14:45:06;22.20;99.90
7654;DHT22;3869;48.406;10.774;2023-07-31T14:47:34;22.20;99.90
7654;DHT22;3869;48.406;10.774;2023-07-31T14:50:03;22.10;99.90
7654;DHT22;3869;48.406;10.774;2023-07-31T14:52:31;22.10;99.90
7654;DHT22;3869;48.406;10.774;2023-07-31T14:55:00;22.10;99.90
7654;DHT22;3869;48.406;10.774;2023-07-31T14:57:28;22.10;99.90
7654;DHT22;3869;48.406;10.774;2023-07-31T14:59:56;22.10;99.90
7654;DHT22;3869;48.406;10.774;2023-07-31T15:02:25;22.10;99.90
7654;DHT22;3869;48.406;10.774;2023-07-31T15:04:53;22.10;99.90
7654;DHT22;3869;48.406;10.774;2023-07-31T15:07:21;22.00;99.90
7654;DHT22;3869;48.406;10.774;2023-07-31T15:09:49;22.00;99.90
7654;DHT22;3869;48.406;10.774;2023-07-31T15:12:19;21.90;99.90
7654;DHT22;3869;48.406;10.774;2023-07-31T15:14:48;21.90;99.90
7654;DHT22;3869;48.406;10.774;2023-07-31T15:17:16;21.90;99.90
7654;DHT22;3869;48.406;10.774;2023-07-31T15:19:44;21.80;99.90
7654;DHT22;3869;48.406;10.774;2023-07-31T15:22:12;21.80;99.90
7654;DHT22;3869;48.406;10.774;2023-07-31T15:24:40;21.80;99.90
7654;DHT22;3869;48.406;10.774;2023-07-31T15:27:08;21.70;99.90
7654;DHT22;3869;48.406;10.774;2023-07-31T15:29:38;21.70;99.90
7654;DHT22;3869;48.406;10.774;2023-07-31T15:32:06;21.70;99.90
7654;DHT22;3869;48.406;10.774;2023-07-31T15:34:34;21.70;99.90
7654;DHT22;3869;48.406;10.774;2023-07-31T15:37:03;21.70;99.90
7654;DHT22;3869;48.406;10.774;2023-07-31T15:39:31;21.70;99.90
7654;DHT22;3869;48.406;10.774;2023-07-31T15:41:59;21.70;99.90
7654;DHT22;3869;48.406;10.774;2023-07-31T15:44:27;21.70;99.90
7654;DHT22;3869;48.406;10.774;2023-07-31T15:46:56;21.80;99.90
7654;DHT22;3869;48.406;10.774;2023-07-31T15:49:24;21.80;99.90
7654;DHT22;3869;48.406;10.774;2023-07-31T15:51:52;21.80;99.90
7654;DHT22;3869;48.406;10.774;2023-07-31T15:54:20;21.80;99.90
7654;DHT22;3869;48.406;10.774;2023-07-31T15:56:48;21.80;99.90